^^
Station Historical Data
 
Daily Summary for March 03, 2015 Units:  English    Metric   Both
« Previous Day
Next Day »
Daily Weekly Monthly Yearly Custom
  Current: High: Low: Average:
Temperature: 80.3 °F 82.7 °F 62.9 °F 71.7 °F
Dew Point: 66.5 °F 70.6 °F 62.3 °F 65.8 °F
Humidity: 63% 98% 60% 84%
Wind Speed: 3.0mph 6.0mph 0.0mph 1.2mph
Wind Gust: 8.0mph 13.0mph - -
WindESE - - ESE
Pressure: 30.09 in 30.22 in 30.08 in -
Precipitation: 0.01 in      
Historical Graphs
 
 
Tabular Data for March 03, 2015
Time Temperature Dew Point Pressure Wind Wind Speed Wind Gust Humidity Rainfall Rate (Hourly) solar Conditions
00:00 65.9 °F 64.7 °F 30.19 in Calm     96% 0.00 in 0.0 W/m2 CLR
00:10 66.0 °F 64.9 °F 30.19 in Calm   1.0 mph 96% 0.00 in 0.0 W/m2 CLR
00:20 65.9 °F 64.7 °F 30.19 in Calm     96% 0.00 in 0.0 W/m2 CLR
00:30 65.8 °F 64.9 °F 30.19 in Calm     97% 0.00 in 0.0 W/m2 CLR
00:40 65.6 °F 64.7 °F 30.19 in Calm     97% 0.00 in 0.0 W/m2 CLR
00:45 65.6 °F 64.7 °F 30.19 in Calm     97% 0.00 in 0.0 W/m2 CLR
00:50 65.6 °F 64.7 °F 30.18 in Calm     97% 0.00 in 0.0 W/m2 CLR
01:00 65.3 °F 64.4 °F 30.18 in Calm     97% 0.00 in 0.0 W/m2 CLR
01:10 65.0 °F 64.1 °F 30.18 in Calm     97% 0.00 in 0.0 W/m2 CLR
01:15 64.9 °F 64.0 °F 30.17 in Calm     97% 0.00 in 0.0 W/m2 CLR
01:20 65.0 °F 64.1 °F 30.17 in Calm     97% 0.00 in 0.0 W/m2 CLR
01:30 65.0 °F 64.1 °F 30.17 in Calm     97% 0.00 in 0.0 W/m2 CLR
01:40 65.1 °F 64.2 °F 30.17 in WNW 1.0 mph 1.0 mph 97% 0.00 in 0.0 W/m2 CLR
01:45 65.2 °F 64.3 °F 30.17 in Calm   1.0 mph 97% 0.00 in 0.0 W/m2 CLR
01:50 65.1 °F 64.2 °F 30.17 in Calm   1.0 mph 97% 0.00 in 0.0 W/m2 CLR
02:00 64.8 °F 64.0 °F 30.17 in Calm     97% 0.00 in 0.0 W/m2 CLR
02:10 64.5 °F 63.6 °F 30.17 in Calm     97% 0.00 in 0.0 W/m2 CLR
02:15 64.4 °F 63.5 °F 30.17 in Calm   1.0 mph 97% 0.00 in 0.0 W/m2 CLR
02:20 64.3 °F 63.4 °F 30.16 in Calm     97% 0.00 in 0.0 W/m2 CLR
02:30 64.3 °F 63.4 °F 30.16 in Calm   1.0 mph 97% 0.00 in 0.0 W/m2 CLR
02:40 64.3 °F 63.4 °F 30.17 in Calm   1.0 mph 97% 0.00 in 0.0 W/m2 CLR
02:45 64.1 °F 63.3 °F 30.17 in Calm   1.0 mph 97% 0.00 in 0.0 W/m2 CLR
02:50 64.1 °F 63.2 °F 30.17 in Calm     97% 0.00 in 0.0 W/m2 CLR
03:00 64.2 °F 63.3 °F 30.16 in Calm     97% 0.00 in 0.0 W/m2 CLR
03:10 64.1 °F 63.2 °F 30.17 in Calm     97% 0.00 in 0.0 W/m2 CLR
03:20 64.1 °F 63.2 °F 30.17 in Calm   1.0 mph 97% 0.00 in 0.0 W/m2 CLR
03:30 63.8 °F 62.9 °F 30.17 in Calm   1.0 mph 97% 0.00 in 0.0 W/m2 RA
03:40 63.8 °F 62.9 °F 30.17 in Calm   1.0 mph 97% 0.00 in 0.0 W/m2 CLR
03:45 63.7 °F 62.9 °F 30.17 in Calm     97% 0.00 in 0.0 W/m2 CLR
03:50 63.7 °F 62.8 °F 30.17 in Calm   2.0 mph 97% 0.00 in 0.0 W/m2
04:00 63.6 °F 62.8 °F 30.17 in Calm     97% 0.00 in 0.0 W/m2
04:10 63.6 °F 63.0 °F 30.16 in Calm     98% 0.00 in 0.0 W/m2
04:15 63.6 °F 63.0 °F 30.16 in Calm   1.0 mph 98% 0.00 in 0.0 W/m2
04:20 63.6 °F 63.0 °F 30.16 in Calm   2.0 mph 98% 0.00 in 0.0 W/m2
04:30 63.5 °F 62.9 °F 30.17 in NE 1.0 mph 3.0 mph 98% 0.00 in 0.0 W/m2
04:40 63.4 °F 62.8 °F 30.17 in Calm   1.0 mph 98% 0.00 in 0.0 W/m2
04:45 63.4 °F 62.8 °F 30.17 in NE 1.0 mph 3.0 mph 98% 0.00 in 0.0 W/m2
04:50 63.5 °F 62.9 °F 30.17 in Calm   1.0 mph 98% 0.00 in 0.0 W/m2
05:00 63.6 °F 63.0 °F 30.17 in NE 1.0 mph 3.0 mph 98% 0.00 in 0.0 W/m2
05:10 63.7 °F 63.1 °F 30.17 in Calm   1.0 mph 98% 0.00 in 0.0 W/m2
05:15 63.7 °F 63.1 °F 30.17 in Calm   2.0 mph 98% 0.00 in 0.0 W/m2
05:20 63.7 °F 63.1 °F 30.17 in Calm   2.0 mph 98% 0.00 in 0.0 W/m2
05:30 63.6 °F 63.0 °F 30.18 in ENE 1.0 mph 2.0 mph 98% 0.00 in 0.0 W/m2
05:40 63.4 °F 62.8 °F 30.18 in ENE 1.0 mph 2.0 mph 98% 0.00 in 0.0 W/m2
05:45 63.2 °F 62.7 °F 30.18 in NE 1.0 mph 2.0 mph 98% 0.00 in 0.0 W/m2
05:50 63.1 °F 62.5 °F 30.18 in Calm   2.0 mph 98% 0.00 in 0.0 W/m2
06:00 63.0 °F 62.4 °F 30.18 in NNE 1.0 mph 1.0 mph 98% 0.00 in 0.0 W/m2
06:10 63.0 °F 62.4 °F 30.18 in Calm   1.0 mph 98% 0.00 in 0.0 W/m2
06:15 62.9 °F 62.3 °F 30.18 in ENE 1.0 mph 1.0 mph 98% 0.00 in 0.0 W/m2
06:20 62.9 °F 62.3 °F 30.18 in ENE 1.0 mph 1.0 mph 98% 0.00 in 0.0 W/m2
06:30 63.0 °F 62.4 °F 30.18 in Calm   1.0 mph 98% 0.00 in 0.0 W/m2
06:40 62.9 °F 62.3 °F 30.18 in Calm   1.0 mph 98% 0.00 in 0.0 W/m2 OVC
06:50 62.9 °F 62.3 °F 30.19 in Calm   2.0 mph 98% 0.00 in 0.0 W/m2 OVC
07:00 62.9 °F 62.3 °F 30.19 in Calm   1.0 mph 98% 0.00 in 0.0 W/m2 OVC
07:10 62.9 °F 62.3 °F 30.19 in Calm   1.0 mph 98% 0.00 in 0.0 W/m2 OVC
07:20 63.0 °F 62.4 °F 30.19 in Calm     98% 0.00 in 0.0 W/m2 OVC
07:30 63.2 °F 62.6 °F 30.20 in Calm     98% 0.00 in 0.0 W/m2 OVC
07:40 63.4 °F 62.8 °F 30.20 in Calm   1.0 mph 98% 0.00 in 0.0 W/m2 OVC
07:50 63.6 °F 63.0 °F 30.20 in ENE 1.0 mph 2.0 mph 98% 0.00 in 0.0 W/m2 OVC
08:00 63.8 °F 63.2 °F 30.20 in Calm   2.0 mph 98% 0.00 in 0.0 W/m2 OVC
08:10 64.3 °F 63.7 °F 30.21 in ENE 1.0 mph 3.0 mph 98% 0.00 in 0.0 W/m2 BKN
08:15 64.6 °F 64.0 °F 30.21 in ENE 1.0 mph 3.0 mph 98% 0.00 in 0.0 W/m2 BKN
08:20 64.7 °F 64.1 °F 30.21 in ENE 1.0 mph 2.0 mph 98% 0.00 in 0.0 W/m2 BKN
08:30 65.1 °F 64.5 °F 30.21 in ENE 1.0 mph 2.0 mph 98% 0.00 in 0.0 W/m2 BKN
08:40 65.8 °F 65.2 °F 30.21 in Calm   2.0 mph 98% 0.00 in 0.0 W/m2 BKN
08:50 67.2 °F 66.6 °F 30.22 in Calm   1.0 mph 98% 0.00 in 0.0 W/m2 BKN
09:00 67.1 °F 66.6 °F 30.21 in ENE 2.0 mph 3.0 mph 98% 0.00 in 0.0 W/m2 BKN
09:10 67.9 °F 67.3 °F 30.21 in East 1.0 mph 2.0 mph 98% 0.00 in 0.0 W/m2 BKN
09:20 68.8 °F 68.2 °F 30.22 in Calm   2.0 mph 98% 0.00 in 0.0 W/m2 FEW
09:30 69.5 °F 68.6 °F 30.21 in Calm   1.0 mph 97% 0.00 in 0.0 W/m2 FEW
09:40 70.7 °F 69.8 °F 30.22 in Calm   2.0 mph 97% 0.00 in 0.0 W/m2 FEW
09:50 71.8 °F 70.6 °F 30.22 in SSW 1.0 mph 4.0 mph 96% 0.00 in 0.0 W/m2 FEW
10:00 73.1 °F 70.3 °F 30.22 in Calm   5.0 mph 91% 0.00 in 0.0 W/m2 FEW
10:10 74.6 °F 70.4 °F 30.21 in Calm   6.0 mph 87% 0.00 in 0.0 W/m2 FEW
10:20 76.0 °F 69.8 °F 30.21 in ESE 2.0 mph 8.0 mph 81% 0.00 in 0.0 W/m2 CLR
10:30 77.5 °F 70.1 °F 30.21 in ESE 1.0 mph 5.0 mph 78% 0.00 in 0.0 W/m2 CLR
10:40 77.6 °F 70.2 °F 30.22 in ESE 2.0 mph 7.0 mph 78% 0.00 in 0.0 W/m2 CLR
10:45 77.9 °F 69.3 °F 30.21 in ESE 1.0 mph 12.0 mph 75% 0.00 in 0.0 W/m2 CLR
10:50 78.1 °F 69.6 °F 30.21 in SE 5.0 mph 7.0 mph 75% 0.00 in 0.0 W/m2 CLR
11:00 78.7 °F 69.3 °F 30.21 in SE 3.0 mph 7.0 mph 73% 0.00 in 0.0 W/m2 CLR
11:10 78.8 °F 68.6 °F 30.21 in SE 2.0 mph 6.0 mph 71% 0.00 in 0.0 W/m2 CLR
11:20 79.6 °F 69.4 °F 30.21 in ESE 2.0 mph 6.0 mph 71% 0.00 in 0.0 W/m2 SCT
11:30 79.9 °F 68.0 °F 30.21 in SE 1.0 mph 8.0 mph 67% 0.00 in 0.0 W/m2 SCT
11:40 80.2 °F 67.4 °F 30.20 in ESE 2.0 mph 7.0 mph 65% 0.00 in 0.0 W/m2 SCT
11:45 79.8 °F 67.4 °F 30.20 in ESE 2.0 mph 6.0 mph 66% 0.00 in 0.0 W/m2 SCT
11:50 79.1 °F 67.2 °F 30.20 in East 2.0 mph 7.0 mph 67% 0.00 in 0.0 W/m2 SCT
11:55 79.0 °F 67.1 °F 30.20 in East 2.0 mph 6.0 mph 67% 0.00 in 0.0 W/m2 SCT
12:00 79.2 °F 66.4 °F 30.20 in East 3.0 mph 7.0 mph 65% 0.00 in 0.0 W/m2 SCT
12:10 79.7 °F 66.9 °F 30.19 in East 1.0 mph 6.0 mph 65% 0.00 in 0.0 W/m2 SCT
12:15 80.6 °F 67.3 °F 30.19 in East 1.0 mph 5.0 mph 64% 0.00 in 0.0 W/m2 SCT
12:20 80.9 °F 66.7 °F 30.18 in East 2.0 mph 7.0 mph 62% 0.00 in 0.0 W/m2 FEW
12:30 81.6 °F 66.8 °F 30.18 in ESE 2.0 mph 12.0 mph 61% 0.00 in 0.0 W/m2 FEW
12:40 81.0 °F 67.2 °F 30.18 in ESE 3.0 mph 7.0 mph 63% 0.00 in 0.0 W/m2 FEW
12:45 80.8 °F 67.0 °F 30.17 in East 5.0 mph 8.0 mph 63% 0.00 in 0.0 W/m2 FEW
12:50 81.2 °F 67.8 °F 30.17 in East 2.0 mph 9.0 mph 64% 0.00 in 0.0 W/m2 FEW
13:00 82.0 °F 68.2 °F 30.16 in ESE 6.0 mph 12.0 mph 63% 0.00 in 0.0 W/m2 FEW
13:10 81.5 °F 67.7 °F 30.16 in East 6.0 mph 12.0 mph 63% 0.00 in 0.0 W/m2 FEW
13:15 81.0 °F 67.7 °F 30.15 in East 3.0 mph 7.0 mph 64% 0.00 in 0.0 W/m2 FEW
13:20 81.6 °F 68.6 °F 30.15 in East 2.0 mph 8.0 mph 65% 0.00 in 0.0 W/m2 SCT
13:30 81.2 °F 67.9 °F 30.14 in ESE 5.0 mph 12.0 mph 64% 0.00 in 0.0 W/m2 SCT
13:40 81.4 °F 68.5 °F 30.13 in ESE 3.0 mph 9.0 mph 65% 0.00 in 0.0 W/m2 SCT
13:45 81.4 °F 68.5 °F 30.13 in ESE 2.0 mph 8.0 mph 65% 0.00 in 0.0 W/m2 SCT
13:50 82.1 °F 69.2 °F 30.13 in SE 2.0 mph 7.0 mph 65% 0.00 in 0.0 W/m2 SCT
14:00 82.7 °F 69.2 °F 30.12 in SE 2.0 mph 12.0 mph 64% 0.00 in 0.0 W/m2 SCT
14:10 82.1 °F 69.2 °F 30.11 in SSE 3.0 mph 7.0 mph 65% 0.00 in 0.0 W/m2 SCT
14:15 81.8 °F 69.3 °F 30.11 in ESE 1.0 mph 9.0 mph 66% 0.00 in 0.0 W/m2 SCT
14:20 82.1 °F 69.6 °F 30.11 in ESE 3.0 mph 9.0 mph 66% 0.00 in 0.0 W/m2 BKN
14:30 81.4 °F 69.4 °F 30.11 in SE 3.0 mph 12.0 mph 67% 0.00 in 0.0 W/m2 BKN
14:40 81.9 °F 69.4 °F 30.11 in ESE 3.0 mph 7.0 mph 66% 0.00 in 0.0 W/m2 BKN
14:45 82.0 °F 69.0 °F 30.11 in ESE 2.0 mph 12.0 mph 65% 0.00 in 0.0 W/m2 BKN
14:50 81.5 °F 68.6 °F 30.10 in ESE 5.0 mph 8.0 mph 65% 0.00 in 0.0 W/m2 BKN
15:00 81.6 °F 68.7 °F 30.10 in East 2.0 mph 5.0 mph 65% 0.00 in 0.0 W/m2 BKN
15:10 81.3 °F 68.9 °F 30.10 in Calm   7.0 mph 66% 0.00 in 0.0 W/m2 BKN
15:15 80.9 °F 69.3 °F 30.10 in East 3.0 mph 8.0 mph 68% 0.00 in 0.0 W/m2 BKN
15:20 80.7 °F 69.2 °F 30.10 in East 3.0 mph 10.0 mph 68% 0.00 in 0.0 W/m2 BKN
15:30 81.0 °F 69.4 °F 30.10 in East 1.0 mph 8.0 mph 68% 0.00 in 0.0 W/m2 BKN
15:40 81.4 °F 69.0 °F 30.10 in East 5.0 mph 7.0 mph 66% 0.00 in 0.0 W/m2 CLR
15:45 82.1 °F 69.6 °F 30.10 in ESE 2.0 mph 7.0 mph 66% 0.00 in 0.0 W/m2 CLR
15:50 81.3 °F 68.4 °F 30.09 in ESE 1.0 mph 12.0 mph 65% 0.00 in 0.0 W/m2 CLR
16:00 81.4 °F 68.1 °F 30.09 in ESE 1.0 mph 8.0 mph 64% 0.00 in 0.0 W/m2 CLR
16:10 81.3 °F 66.1 °F 30.09 in East 2.0 mph 9.0 mph 60% 0.00 in 0.0 W/m2 CLR
16:20 80.5 °F 66.3 °F 30.09 in East 1.0 mph 7.0 mph 62% 0.00 in 0.0 W/m2 CLR
16:30 81.3 °F 66.6 °F 30.09 in ESE 2.0 mph 7.0 mph 61% 0.00 in 0.0 W/m2 CLR
16:40 81.1 °F 65.9 °F 30.09 in ESE 2.0 mph 13.0 mph 60% 0.00 in 0.0 W/m2 CLR
16:45 80.6 °F 65.5 °F 30.09 in ESE 3.0 mph 8.0 mph 60% 0.00 in 0.0 W/m2 CLR
16:50 80.4 °F 66.2 °F 30.08 in East 2.0 mph 8.0 mph 62% 0.00 in 0.0 W/m2 CLR
17:00 81.3 °F 66.6 °F 30.09 in East 1.0 mph 8.0 mph 61% 0.00 in 0.0 W/m2 CLR
17:10 81.1 °F 66.4 °F 30.09 in ESE 3.0 mph 8.0 mph 61% 0.00 in 0.0 W/m2 CLR
17:15 81.0 °F 66.8 °F 30.09 in ESE 2.0 mph 6.0 mph 62% 0.00 in 0.0 W/m2 CLR
17:20 81.0 °F 66.8 °F 30.09 in ESE 1.0 mph 8.0 mph 62% 0.00 in 0.0 W/m2 CLR
17:30 80.3 °F 66.5 °F 30.09 in ESE 3.0 mph 8.0 mph 63% 0.00 in 0.0 W/m2 CLR
Lake Mary, FL, USA
Compliments of Weather Underground